createdAt,value
2022-08-18T00:00:51.407Z,16.42
2022-08-18T00:03:55.863Z,17.42
2022-08-18T00:06:51.022Z,20.02
2022-08-18T00:09:43.301Z,17.05
2022-08-18T00:12:40.809Z,15.57
2022-08-18T00:15:30.400Z,15.82
2022-08-18T00:18:19.787Z,17.33
2022-08-18T00:21:07.829Z,15.80
2022-08-18T00:23:57.900Z,16.17
2022-08-18T00:26:47.212Z,16.50
2022-08-18T00:29:39.153Z,15.30
2022-08-18T00:32:37.522Z,17.90
2022-08-18T00:35:33.612Z,17.45
2022-08-18T00:38:24.247Z,15.85
2022-08-18T00:41:14.143Z,16.73
2022-08-18T00:44:04.897Z,18.98
2022-08-18T00:46:53.986Z,17.38
2022-08-18T00:49:45.647Z,15.93
2022-08-18T00:52:37.847Z,15.95
2022-08-18T00:55:31.100Z,15.35
2022-08-18T00:58:39.098Z,15.55
2022-08-18T01:01:33.010Z,14.75
2022-08-18T01:04:42.995Z,14.80
2022-08-18T01:07:36.998Z,15.07
2022-08-18T01:10:27.199Z,15.10
2022-08-18T01:13:18.638Z,15.00
2022-08-18T01:16:27.432Z,16.90
2022-08-18T01:19:40.882Z,15.63
2022-08-18T01:23:01.786Z,14.98
2022-08-18T01:26:00.619Z,14.43
2022-08-18T01:28:50.686Z,14.48
2022-08-18T01:31:53.308Z,14.50
2022-08-18T01:34:48.154Z,14.30
2022-08-18T01:37:41.371Z,14.68
2022-08-18T01:41:27.424Z,15.32
2022-08-18T01:43:43.709Z,17.42
2022-08-18T01:46:36.357Z,14.50
2022-08-18T01:49:28.873Z,15.43
2022-08-18T01:52:22.725Z,16.98
2022-08-18T01:55:14.710Z,16.38
2022-08-18T01:58:08.577Z,15.73
2022-08-18T02:01:02.761Z,16.50
2022-08-18T02:04:23.381Z,18.15
2022-08-18T02:07:14.946Z,15.77
2022-08-18T02:10:15.318Z,15.02
2022-08-18T02:13:07.834Z,15.02
2022-08-18T02:15:56.493Z,13.88
2022-08-18T02:18:47.711Z,15.45
2022-08-18T02:21:40.259Z,14.88
2022-08-18T02:24:30.337Z,15.18
2022-08-18T02:27:19.111Z,14.57
2022-08-18T02:30:11.559Z,18.10
2022-08-18T02:33:02.074Z,16.67
2022-08-18T02:35:56.174Z,14.95
2022-08-18T02:41:51.573Z,18.30
2022-08-18T02:44:41.878Z,15.35
2022-08-18T02:47:33.874Z,15.25
2022-08-18T02:50:23.019Z,16.23
2022-08-18T02:53:22.417Z,13.68
2022-08-18T02:56:32.836Z,14.60
2022-08-18T02:59:31.776Z,15.25
2022-08-18T03:02:20.844Z,14.75
2022-08-18T03:05:14.693Z,15.75
2022-08-18T03:08:03.265Z,17.23
2022-08-18T03:10:54.828Z,15.43
2022-08-18T03:13:43.394Z,16.75
2022-08-18T03:16:33.319Z,15.40
2022-08-18T03:19:28.800Z,14.13
2022-08-18T03:22:28.589Z,17.98
2022-08-18T03:25:20.530Z,77.60
2022-08-18T03:28:08.727Z,87.03
2022-08-18T03:30:57.021Z,23.13
2022-08-18T03:33:49.273Z,18.77
2022-08-18T03:36:37.547Z,20.85
2022-08-18T03:39:27.883Z,17.83
2022-08-18T03:42:18.803Z,16.63
2022-08-18T03:45:17.284Z,16.98
2022-08-18T03:48:07.434Z,16.88
2022-08-18T03:50:55.458Z,17.52
2022-08-18T03:53:44.299Z,18.52
2022-08-18T03:56:38.211Z,19.00
2022-08-18T03:59:31.897Z,25.85
2022-08-18T04:02:22.797Z,16.95
2022-08-18T04:05:12.555Z,19.23
2022-08-18T04:08:05.528Z,18.95
2022-08-18T04:10:54.590Z,18.75
2022-08-18T04:13:43.230Z,20.60
2022-08-18T04:16:32.878Z,21.05
2022-08-18T04:19:26.187Z,20.75
2022-08-18T04:22:18.460Z,19.75
2022-08-18T04:25:11.501Z,18.08
2022-08-18T04:28:01.329Z,19.67
2022-08-18T04:30:50.592Z,21.13
2022-08-18T04:33:42.843Z,21.20
2022-08-18T04:36:34.576Z,19.17
2022-08-18T04:39:26.649Z,19.50
2022-08-18T04:42:15.443Z,18.58
2022-08-18T04:45:04.000Z,17.70
2022-08-18T04:47:53.382Z,19.15
2022-08-18T04:50:41.986Z,16.83
2022-08-18T04:53:45.113Z,21.02
2022-08-18T04:56:38.156Z,19.60
2022-08-18T04:59:26.125Z,17.50
2022-08-18T05:02:15.963Z,17.23
2022-08-18T05:05:06.574Z,19.95
2022-08-18T05:07:58.034Z,16.30
2022-08-18T05:10:48.221Z,16.52
2022-08-18T05:13:37.787Z,16.02
2022-08-18T05:16:29.497Z,16.15
2022-08-18T05:19:26.151Z,21.60
2022-08-18T05:22:19.630Z,17.45
2022-08-18T05:25:20.953Z,34.65
2022-08-18T05:28:09.857Z,34.90
2022-08-18T05:31:00.554Z,45.60
2022-08-18T05:33:51.899Z,55.63
2022-08-18T05:36:48.336Z,39.42
2022-08-18T05:39:57.929Z,13.35
2022-08-18T05:42:48.684Z,15.57
2022-08-18T05:45:37.241Z,12.73
2022-08-18T05:48:25.486Z,13.32
2022-08-18T05:51:42.865Z,11.15
2022-08-18T05:55:01.794Z,17.27
2022-08-18T05:58:08.195Z,11.63
2022-08-18T06:01:05.377Z,11.18
2022-08-18T06:04:06.862Z,13.25
2022-08-18T06:06:58.767Z,11.85
2022-08-18T06:09:55.938Z,12.07
2022-08-18T06:12:52.383Z,15.13
2022-08-18T06:15:56.525Z,13.10
2022-08-18T06:19:04.124Z,13.23
2022-08-18T06:22:23.699Z,15.18
2022-08-18T06:25:27.576Z,16.08
2022-08-18T06:28:17.244Z,17.60
2022-08-18T06:31:29.211Z,19.77
2022-08-18T06:34:44.579Z,17.55
2022-08-18T06:38:31.800Z,17.65
2022-08-18T06:41:48.734Z,15.35
2022-08-18T06:44:52.196Z,17.42
2022-08-18T06:47:49.674Z,21.02
2022-08-18T06:50:57.062Z,18.08
2022-08-18T06:54:06.666Z,22.50
2022-08-18T06:56:57.700Z,23.45
2022-08-18T07:00:17.066Z,24.42
2022-08-18T07:03:16.239Z,21.65
2022-08-18T07:06:22.101Z,23.48
2022-08-18T07:09:24.806Z,24.65
2022-08-18T07:12:22.346Z,22.38
2022-08-18T07:15:13.006Z,21.65
2022-08-18T07:18:09.141Z,23.48
2022-08-18T07:21:01.241Z,26.20
2022-08-18T07:24:24.289Z,23.05
2022-08-18T07:27:40.552Z,20.25
2022-08-18T07:30:36.710Z,24.55
2022-08-18T07:33:26.448Z,27.50
2022-08-18T07:36:17.077Z,25.20
2022-08-18T07:39:27.797Z,27.15
2022-08-18T07:43:01.565Z,21.52
2022-08-18T07:45:48.751Z,18.10
2022-08-18T07:48:40.205Z,24.73
2022-08-18T07:51:43.800Z,23.13
2022-08-18T07:55:18.519Z,23.17
2022-08-18T07:58:09.132Z,20.50
2022-08-18T08:01:04.741Z,27.55
2022-08-18T08:04:26.629Z,23.02
2022-08-18T08:07:25.939Z,21.50
2022-08-18T08:10:38.875Z,25.00
2022-08-18T08:14:01.311Z,27.80
2022-08-18T08:17:34.846Z,23.75
2022-08-18T08:21:06.573Z,25.80
2022-08-18T08:24:26.139Z,27.88
2022-08-18T08:28:03.108Z,25.33
2022-08-18T08:31:36.217Z,24.83
2022-08-18T08:34:54.629Z,19.80
2022-08-18T08:38:39.399Z,23.75
2022-08-18T08:41:51.315Z,19.83
2022-08-18T08:45:04.140Z,21.92
2022-08-18T08:48:21.612Z,17.95
2022-08-18T08:51:32.114Z,20.52
2022-08-18T08:54:37.749Z,24.27
2022-08-18T08:57:39.415Z,23.83
2022-08-18T09:00:30.570Z,19.25
2022-08-18T09:03:47.749Z,20.00
2022-08-18T09:07:10.041Z,20.60
2022-08-18T09:10:23.860Z,25.13
2022-08-18T09:13:29.680Z,20.63
2022-08-18T09:16:48.042Z,22.33
2022-08-18T09:19:57.002Z,18.70
2022-08-18T09:23:18.333Z,19.48
2022-08-18T09:26:43.191Z,19.70
2022-08-18T09:33:19.839Z,19.60
2022-08-18T09:36:45.994Z,21.70
2022-08-18T09:40:19.441Z,21.83
2022-08-18T09:43:54.510Z,21.45
2022-08-18T09:46:51.986Z,20.60
2022-08-18T09:49:56.283Z,25.20
2022-08-18T09:52:54.972Z,24.40
2022-08-18T09:56:01.291Z,21.02
2022-08-18T09:59:02.767Z,22.65
2022-08-18T10:02:36.801Z,23.83
2022-08-18T10:05:35.590Z,24.58
2022-08-18T10:09:17.629Z,23.50
2022-08-18T10:12:49.008Z,21.95
2022-08-18T10:16:25.517Z,24.75
2022-08-18T10:19:52.034Z,25.95
2022-08-18T10:22:50.858Z,22.02
2022-08-18T10:25:48.371Z,22.35
2022-08-18T10:29:04.498Z,23.85
2022-08-18T10:31:59.914Z,22.67
2022-08-18T10:37:50.728Z,22.13
2022-08-18T10:40:53.454Z,23.80
2022-08-18T10:43:55.556Z,27.90
2022-08-18T10:46:53.601Z,25.00
2022-08-18T10:49:53.729Z,21.63
2022-08-18T10:53:39.037Z,23.98
2022-08-18T10:56:43.758Z,21.90
2022-08-18T10:59:58.253Z,21.77
2022-08-18T11:03:51.324Z,25.75
2022-08-18T11:06:56.794Z,22.52
2022-08-18T11:10:04.563Z,23.90
2022-08-18T11:16:25.945Z,20.73
2022-08-18T11:19:20.295Z,21.08
2022-08-18T11:22:34.225Z,21.95
2022-08-18T11:25:36.878Z,23.65
2022-08-18T11:28:32.547Z,22.75
2022-08-18T11:31:24.485Z,24.88
2022-08-18T11:34:26.390Z,24.40
2022-08-18T11:37:59.871Z,23.80
2022-08-18T11:44:19.804Z,23.45
2022-08-18T11:47:18.719Z,22.73
2022-08-18T11:50:16.468Z,23.90
2022-08-18T11:53:58.048Z,23.10
2022-08-18T11:56:50.870Z,21.67
2022-08-18T11:59:55.030Z,22.80
2022-08-18T12:03:03.033Z,23.70
2022-08-18T12:06:21.402Z,21.98
2022-08-18T12:10:16.063Z,22.73
2022-08-18T12:12:53.477Z,19.80
2022-08-18T12:15:46.834Z,17.80
2022-08-18T12:21:32.647Z,17.17
2022-08-18T12:24:36.826Z,18.15
2022-08-18T12:27:33.732Z,18.77
2022-08-18T12:30:24.265Z,16.88
2022-08-18T12:33:18.464Z,18.10
2022-08-18T12:36:18.912Z,18.02
2022-08-18T12:39:10.724Z,17.50
2022-08-18T12:42:03.951Z,16.15
2022-08-18T12:44:56.444Z,16.57
2022-08-18T12:47:47.379Z,14.52
2022-08-18T12:50:50.087Z,16.77
2022-08-18T12:54:00.077Z,15.57
2022-08-18T12:56:57.645Z,13.85
2022-08-18T12:59:48.233Z,15.77
2022-08-18T13:05:51.474Z,15.40
2022-08-18T13:08:50.232Z,15.38
2022-08-18T13:11:40.945Z,15.30
2022-08-18T13:14:35.748Z,14.13
2022-08-18T13:17:30.212Z,16.10
2022-08-18T13:20:25.538Z,14.15
2022-08-18T13:23:15.416Z,18.80
2022-08-18T13:26:13.595Z,14.47
2022-08-18T13:29:06.221Z,14.70
2022-08-18T13:32:04.782Z,13.82
2022-08-18T13:34:59.438Z,15.23
2022-08-18T13:37:54.303Z,12.32
2022-08-18T13:40:50.459Z,12.45
2022-08-18T13:43:44.535Z,12.95
2022-08-18T13:46:45.419Z,14.95
2022-08-18T13:49:36.592Z,12.75
2022-08-18T13:52:38.737Z,12.73
2022-08-18T13:55:34.185Z,12.82
2022-08-18T14:01:42.339Z,11.65
2022-08-18T14:04:29.088Z,10.88
2022-08-18T14:07:27.273Z,11.90
2022-08-18T14:10:20.937Z,11.00
2022-08-18T14:13:20.936Z,11.50
2022-08-18T14:19:29.691Z,10.90
2022-08-18T14:22:39.472Z,12.00
2022-08-18T14:25:50.079Z,11.90
2022-08-18T14:28:41.584Z,11.55
2022-08-18T14:31:34.192Z,10.75
2022-08-18T14:34:27.651Z,12.10
2022-08-18T14:37:19.908Z,10.40
2022-08-18T14:40:12.241Z,10.35
2022-08-18T14:43:06.542Z,10.73
2022-08-18T14:45:59.818Z,12.02
2022-08-18T14:48:51.991Z,10.60
2022-08-18T14:51:43.610Z,10.63
2022-08-18T14:54:38.823Z,12.85
2022-08-18T14:57:40.281Z,12.48
2022-08-18T15:00:33.276Z,12.00
2022-08-18T15:03:30.847Z,12.23
2022-08-18T15:06:22.899Z,11.27
2022-08-18T15:09:18.547Z,11.73
2022-08-18T15:12:09.995Z,11.43
2022-08-18T15:15:12.382Z,11.60
2022-08-18T15:18:09.842Z,11.57
2022-08-18T15:21:19.629Z,13.83
2022-08-18T15:24:44.117Z,13.55
2022-08-18T15:27:42.693Z,13.20
2022-08-18T15:33:36.107Z,12.63
2022-08-18T15:36:29.363Z,13.13
2022-08-18T15:39:20.005Z,14.05
2022-08-18T15:42:14.136Z,13.55
2022-08-18T15:45:11.726Z,13.93
2022-08-18T15:48:04.160Z,12.38
2022-08-18T15:50:55.586Z,14.48
2022-08-18T15:53:46.674Z,12.98
2022-08-18T15:56:38.795Z,13.60
2022-08-18T15:59:40.145Z,13.95
2022-08-18T16:02:32.121Z,12.40
2022-08-18T16:05:26.157Z,12.93
2022-08-18T16:11:28.317Z,11.00
2022-08-18T16:14:20.351Z,11.13
2022-08-18T16:17:23.775Z,8.95
2022-08-18T16:20:26.447Z,9.10
2022-08-18T16:23:16.006Z,8.90
2022-08-18T16:26:07.399Z,9.52
2022-08-18T16:29:01.678Z,13.85
2022-08-18T16:31:52.401Z,15.02
2022-08-18T16:34:43.307Z,14.18
2022-08-18T16:37:34.234Z,15.95
2022-08-18T16:40:28.045Z,15.98
2022-08-18T16:46:16.813Z,15.02
2022-08-18T16:49:09.067Z,16.83
2022-08-18T16:52:02.591Z,16.65
2022-08-18T16:54:57.234Z,16.35
2022-08-18T16:58:10.688Z,16.13
2022-08-18T17:01:23.043Z,17.92
2022-08-18T17:04:20.762Z,16.98
2022-08-18T17:07:13.376Z,18.48
2022-08-18T17:10:07.653Z,18.98
2022-08-18T17:12:59.786Z,17.85
2022-08-18T17:15:57.722Z,20.83
2022-08-18T17:18:50.720Z,22.33
2022-08-18T17:21:45.943Z,19.38
2022-08-18T17:24:37.718Z,20.45
2022-08-18T17:27:37.832Z,22.52
2022-08-18T17:30:32.872Z,16.45
2022-08-18T17:33:31.760Z,14.48
2022-08-18T17:36:52.705Z,16.30
2022-08-18T17:40:00.388Z,16.15
2022-08-18T17:42:51.525Z,16.40
2022-08-18T17:45:45.608Z,16.08
2022-08-18T17:48:45.987Z,16.77
2022-08-18T17:51:52.437Z,15.82
2022-08-18T17:54:50.463Z,16.85
2022-08-18T17:58:10.783Z,16.27
2022-08-18T18:01:04.193Z,16.20
2022-08-18T18:03:56.499Z,15.57
2022-08-18T18:06:49.401Z,15.82
2022-08-18T18:09:40.910Z,16.17
2022-08-18T18:12:35.848Z,16.08
2022-08-18T18:15:33.963Z,17.05
2022-08-18T18:18:42.938Z,17.10
2022-08-18T18:21:53.606Z,17.05
2022-08-18T18:25:00.845Z,16.17
2022-08-18T18:27:52.637Z,16.52
2022-08-18T18:30:43.645Z,19.58
2022-08-18T18:33:34.693Z,15.82
2022-08-18T18:36:41.796Z,16.83
2022-08-18T18:39:36.134Z,24.95
2022-08-18T18:42:31.558Z,19.00
2022-08-18T18:45:31.166Z,20.85
2022-08-18T18:48:48.075Z,20.58
2022-08-18T18:52:12.116Z,21.08
2022-08-18T18:55:18.150Z,23.20
2022-08-18T18:58:43.511Z,22.48
2022-08-18T19:01:39.099Z,22.65
2022-08-18T19:04:44.671Z,22.33
2022-08-18T19:08:06.441Z,23.45
2022-08-18T19:11:07.758Z,21.92
2022-08-18T19:14:07.538Z,22.17
2022-08-18T19:17:18.171Z,20.98
2022-08-18T19:20:20.619Z,19.95
2022-08-18T19:23:45.042Z,20.02
2022-08-18T19:26:50.976Z,20.13
2022-08-18T19:29:43.536Z,20.45
2022-08-18T19:32:43.272Z,24.40
2022-08-18T19:35:59.609Z,21.73
2022-08-18T19:39:26.758Z,23.80
2022-08-18T19:42:35.179Z,24.17
2022-08-18T19:45:47.350Z,20.88
2022-08-18T19:48:39.325Z,24.20
2022-08-18T19:51:40.070Z,21.33
2022-08-18T19:54:36.362Z,19.52
2022-08-18T19:57:40.013Z,25.13
2022-08-18T20:00:57.991Z,24.03
2022-08-18T20:04:28.958Z,21.80
2022-08-18T20:07:55.658Z,21.70
2022-08-18T20:11:12.830Z,22.48
2022-08-18T20:14:01.589Z,20.80
2022-08-18T20:17:08.890Z,20.08
2022-08-18T20:20:01.019Z,21.27
2022-08-18T20:22:56.845Z,23.33
2022-08-18T20:25:47.033Z,21.35
2022-08-18T20:28:40.648Z,21.17
2022-08-18T20:31:50.223Z,21.30
2022-08-18T20:34:40.561Z,22.52
2022-08-18T20:37:31.692Z,21.40
2022-08-18T20:40:50.632Z,21.10
2022-08-18T20:43:40.520Z,21.58
2022-08-18T20:46:56.124Z,20.95
2022-08-18T20:50:40.020Z,20.77
2022-08-18T20:54:13.712Z,23.25
2022-08-18T20:57:07.281Z,20.70
2022-08-18T21:00:26.884Z,22.83
2022-08-18T21:03:20.630Z,20.08
2022-08-18T21:06:14.119Z,18.58
2022-08-18T21:09:04.887Z,20.88
2022-08-18T21:11:57.567Z,20.90
2022-08-18T21:14:54.510Z,20.80
2022-08-18T21:17:43.659Z,21.15
2022-08-18T21:20:34.299Z,20.58
2022-08-18T21:23:30.533Z,20.92
2022-08-18T21:26:19.863Z,19.88
2022-08-18T21:29:12.240Z,20.92
2022-08-18T21:32:24.806Z,20.65
2022-08-18T21:35:29.231Z,20.00
2022-08-18T21:41:23.041Z,22.88
2022-08-18T21:44:41.880Z,19.75
2022-08-18T21:47:34.972Z,20.00
2022-08-18T21:50:31.647Z,20.58
2022-08-18T21:53:31.311Z,19.27
2022-08-18T21:56:31.094Z,19.67
2022-08-18T21:59:20.933Z,19.77
2022-08-18T22:02:21.827Z,23.50
2022-08-18T22:05:13.544Z,21.40
2022-08-18T22:08:01.490Z,21.15
2022-08-18T22:12:01.414Z,21.83
2022-08-18T22:14:55.269Z,19.98
2022-08-18T22:18:00.124Z,22.00
2022-08-18T22:24:04.675Z,20.33
2022-08-18T22:27:18.282Z,23.48
2022-08-18T22:30:06.981Z,22.73
2022-08-18T22:32:54.966Z,22.65
2022-08-18T22:35:45.017Z,23.30
2022-08-18T22:38:34.493Z,24.00
2022-08-18T22:41:23.353Z,25.92
2022-08-18T22:44:12.852Z,24.13
2022-08-18T22:47:01.094Z,25.15
2022-08-18T22:49:49.064Z,22.92
2022-08-18T22:52:43.607Z,24.58
2022-08-18T22:55:31.559Z,21.90
2022-08-18T22:58:27.960Z,22.58
2022-08-18T23:01:16.451Z,22.80
2022-08-18T23:04:05.495Z,23.35
2022-08-18T23:06:55.414Z,22.40
2022-08-18T23:09:46.362Z,20.58
2022-08-18T23:12:34.567Z,26.33
2022-08-18T23:15:41.175Z,24.23
2022-08-18T23:18:32.742Z,23.77
2022-08-18T23:21:35.038Z,23.75
2022-08-18T23:24:26.010Z,22.90
2022-08-18T23:27:14.640Z,27.27
2022-08-18T23:30:03.987Z,23.20
2022-08-18T23:32:52.442Z,26.52
2022-08-18T23:35:43.046Z,25.55
2022-08-18T23:38:32.544Z,26.63
2022-08-18T23:41:21.636Z,23.13
2022-08-18T23:44:10.684Z,27.50
2022-08-18T23:46:59.892Z,25.98
2022-08-18T23:49:48.111Z,27.17
2022-08-18T23:52:36.057Z,28.73
2022-08-18T23:55:24.509Z,25.15
2022-08-18T23:58:12.481Z,27.75
